createdAt,value
2018-04-28T00:01:36.806Z,14.00
2018-04-28T00:06:39.372Z,13.90
2018-04-28T00:11:42.012Z,13.90
2018-04-28T00:16:51.366Z,13.80
2018-04-28T00:21:57.035Z,13.80
2018-04-28T00:27:02.509Z,13.70
2018-04-28T00:32:06.013Z,13.60
2018-04-28T00:37:12.035Z,13.60
2018-04-28T00:42:17.072Z,13.50
2018-04-28T00:47:19.689Z,13.50
2018-04-28T00:52:22.244Z,13.40
2018-04-28T00:57:55.899Z,13.30
2018-04-28T01:02:59.661Z,13.20
2018-04-28T01:08:03.752Z,13.20
2018-04-28T01:13:10.905Z,13.10
2018-04-28T01:18:13.995Z,13.10
2018-04-28T01:23:38.428Z,13.10
2018-04-28T01:29:08.473Z,13.00
2018-04-28T01:34:31.726Z,13.00
2018-04-28T01:39:44.305Z,12.90
2018-04-28T01:45:02.719Z,12.90
2018-04-28T01:50:08.548Z,12.80
2018-04-28T02:00:36.287Z,12.60
2018-04-28T02:05:44.159Z,12.60
2018-04-28T02:10:54.184Z,12.40
2018-04-28T02:16:00.577Z,12.40
2018-04-28T02:21:10.289Z,12.40
2018-04-28T02:26:32.135Z,12.30
2018-04-28T02:31:39.920Z,12.30
2018-04-28T02:37:16.384Z,12.20
2018-04-28T02:42:28.306Z,12.10
2018-04-28T02:52:52.613Z,12.00
2018-04-28T02:58:09.393Z,11.90
2018-04-28T03:08:46.427Z,11.80
2018-04-28T03:13:48.965Z,11.80
2018-04-28T03:18:52.351Z,11.70
2018-04-28T03:23:59.441Z,11.60
2018-04-28T03:29:03.768Z,11.60
2018-04-28T03:39:36.060Z,11.40
2018-04-28T03:44:43.180Z,11.40
2018-04-28T03:49:46.239Z,11.30
2018-04-28T03:54:50.397Z,11.30
2018-04-28T04:00:05.983Z,11.20
2018-04-28T04:05:11.109Z,11.20
2018-04-28T04:10:15.768Z,11.20
2018-04-28T04:31:42.648Z,11.00
2018-04-28T04:36:54.718Z,11.00
2018-04-28T04:42:05.264Z,11.00
2018-04-28T04:47:14.081Z,11.00
2018-04-28T04:52:20.972Z,11.10
2018-04-28T04:57:35.832Z,11.10
2018-04-28T05:02:44.328Z,11.20
2018-04-28T05:07:54.722Z,11.20
2018-04-28T05:13:04.005Z,11.30
2018-04-28T05:18:20.300Z,11.30
2018-04-28T05:34:27.892Z,11.50
2018-04-28T05:39:41.007Z,11.60
2018-04-28T05:50:24.465Z,11.90
2018-04-28T05:55:39.328Z,12.00
2018-04-28T06:00:52.432Z,12.20
2018-04-28T06:06:16.970Z,12.30
2018-04-28T06:11:57.373Z,12.50
2018-04-28T06:17:11.961Z,12.90
2018-04-28T06:22:16.417Z,13.30
2018-04-28T06:32:26.393Z,14.00
2018-04-28T06:37:29.165Z,14.20
2018-04-28T06:47:42.679Z,14.80
2018-04-28T06:52:46.224Z,15.10
2018-04-28T06:57:49.627Z,15.30
2018-04-28T07:02:55.054Z,15.60
2018-04-28T07:07:59.027Z,16.00
2018-04-28T07:13:01.965Z,16.50
2018-04-28T07:18:04.788Z,17.00
2018-04-28T07:23:07.407Z,17.40
2018-04-28T07:28:11.509Z,17.90
2018-04-28T07:33:14.158Z,18.40
2018-04-28T07:38:20.480Z,18.80
2018-04-28T07:43:24.582Z,19.20
2018-04-28T07:48:28.001Z,19.70
2018-04-28T07:58:37.932Z,20.50
2018-04-28T08:03:41.380Z,20.90
2018-04-28T08:08:44.883Z,21.20
2018-04-28T08:13:47.747Z,21.50
2018-04-28T08:18:52.311Z,21.80
2018-04-28T08:23:57.857Z,22.10
2018-04-28T08:29:00.847Z,22.30
2018-04-28T08:34:05.696Z,22.50
2018-04-28T08:39:15.500Z,22.70
2018-04-28T08:44:18.848Z,22.90
2018-04-28T08:49:21.655Z,23.00
2018-04-28T08:54:24.911Z,23.10
2018-04-28T09:04:51.851Z,23.30
2018-04-28T09:09:54.529Z,23.50
2018-04-28T09:15:02.500Z,23.60
2018-04-28T09:20:06.636Z,23.80
2018-04-28T09:25:09.277Z,24.00
2018-04-28T09:30:13.044Z,24.30
2018-04-28T09:35:16.673Z,24.40
2018-04-28T09:40:21.217Z,24.70
2018-04-28T09:45:24.997Z,24.90
2018-04-28T09:50:29.948Z,25.00
2018-04-28T09:55:33.319Z,25.20
2018-04-28T10:00:59.525Z,25.40
2018-04-28T10:06:02.209Z,25.50
2018-04-28T10:11:08.574Z,25.50
2018-04-28T10:16:12.219Z,25.80
2018-04-28T10:21:17.005Z,26.00
2018-04-28T10:26:21.398Z,26.10
2018-04-28T10:31:24.316Z,26.20
2018-04-28T10:36:28.862Z,26.40
2018-04-28T10:41:31.967Z,26.50
2018-04-28T10:46:35.638Z,26.60
2018-04-28T10:56:48.246Z,26.80
2018-04-28T11:01:54.741Z,26.80
2018-04-28T11:06:59.055Z,27.10
2018-04-28T11:12:02.326Z,27.20
2018-04-28T11:17:05.644Z,27.40
2018-04-28T11:22:08.637Z,27.50
2018-04-28T11:27:12.804Z,27.60
2018-04-28T11:32:15.336Z,27.60
2018-04-28T11:37:18.145Z,27.60
2018-04-28T11:42:21.879Z,27.80
2018-04-28T11:47:24.516Z,27.80
2018-04-28T11:52:28.736Z,28.00
2018-04-28T11:57:31.392Z,28.00
2018-04-28T12:02:35.136Z,28.10
2018-04-28T12:07:39.460Z,28.10
2018-04-28T12:12:42.113Z,28.10
2018-04-28T12:17:44.641Z,28.20
2018-04-28T12:22:48.048Z,28.40
2018-04-28T12:27:50.559Z,28.40
2018-04-28T12:32:53.160Z,28.50
2018-04-28T12:37:55.983Z,28.50
2018-04-28T12:42:59.358Z,28.50
2018-04-28T12:48:02.134Z,28.60
2018-04-28T12:53:04.785Z,27.80
2018-04-28T12:58:07.396Z,27.40
2018-04-28T13:03:10.135Z,27.20
2018-04-28T13:08:12.891Z,26.80
2018-04-28T13:13:16.907Z,26.80
2018-04-28T13:18:20.444Z,27.00
2018-04-28T13:23:23.663Z,26.90
2018-04-28T13:28:26.198Z,27.20
2018-04-28T13:33:29.362Z,27.20
2018-04-28T13:38:32.156Z,27.10
2018-04-28T13:43:35.146Z,26.90
2018-04-28T13:48:39.136Z,26.80
2018-04-28T13:53:43.397Z,27.70
2018-04-28T13:58:48.396Z,27.70
2018-04-28T14:09:00.048Z,27.90
2018-04-28T14:14:03.917Z,28.00
2018-04-28T14:19:07.029Z,28.10
2018-04-28T14:24:09.714Z,28.10
2018-04-28T14:29:13.547Z,28.10
2018-04-28T14:34:18.238Z,28.00
2018-04-28T14:39:21.529Z,28.00
2018-04-28T14:44:24.036Z,27.90
2018-04-28T14:49:30.519Z,27.80
2018-04-28T14:54:34.595Z,27.70
2018-04-28T14:59:37.997Z,27.60
2018-04-28T15:04:42.065Z,27.50
2018-04-28T15:09:45.344Z,27.40
2018-04-28T15:14:52.381Z,27.30
2018-04-28T15:19:57.917Z,27.20
2018-04-28T15:25:02.713Z,27.10
2018-04-28T15:35:16.008Z,26.80
2018-04-28T15:40:19.808Z,26.70
2018-04-28T15:45:24.802Z,26.70
2018-04-28T15:50:29.029Z,26.50
2018-04-28T15:55:32.454Z,26.50
2018-04-28T16:00:35.771Z,26.50
2018-04-28T16:05:39.025Z,26.40
2018-04-28T16:10:41.590Z,26.30
2018-04-28T16:15:46.418Z,26.20
2018-04-28T16:20:49.293Z,26.20
2018-04-28T16:25:53.149Z,26.10
2018-04-28T16:30:56.673Z,26.00
2018-04-28T16:36:01.791Z,25.90
2018-04-28T16:41:04.758Z,25.80
2018-04-28T16:46:07.523Z,25.80
2018-04-28T16:51:11.761Z,25.60
2018-04-28T16:56:14.789Z,25.50
2018-04-28T17:01:18.402Z,25.30
2018-04-28T17:06:24.556Z,25.30
2018-04-28T17:11:27.514Z,25.20
2018-04-28T17:16:32.321Z,24.90
2018-04-28T17:21:36.716Z,24.80
2018-04-28T17:26:39.957Z,24.70
2018-04-28T17:31:43.993Z,24.60
2018-04-28T17:36:46.750Z,24.40
2018-04-28T17:41:50.791Z,24.30
2018-04-28T17:46:55.527Z,24.20
2018-04-28T17:51:59.783Z,24.00
2018-04-28T17:57:03.643Z,23.80
2018-04-28T18:02:08.471Z,23.70
2018-04-28T18:07:11.476Z,23.60
2018-04-28T18:12:15.196Z,23.40
2018-04-28T18:17:22.775Z,23.30
2018-04-28T18:22:26.698Z,23.20
2018-04-28T18:27:31.526Z,22.90
2018-04-28T18:32:35.281Z,22.80
2018-04-28T18:37:38.593Z,22.70
2018-04-28T18:42:41.384Z,22.50
2018-04-28T18:47:45.815Z,22.40
2018-04-28T18:52:48.737Z,22.20
2018-04-28T18:57:54.363Z,21.90
2018-04-28T19:02:59.523Z,21.90
2018-04-28T19:08:04.563Z,21.70
2018-04-28T19:13:09.829Z,21.60
2018-04-28T19:18:13.409Z,21.40
2018-04-28T19:23:17.541Z,21.20
2018-04-28T19:28:20.492Z,21.10
2018-04-28T19:33:26.983Z,21.00
2018-04-28T19:38:30.515Z,20.70
2018-04-28T19:43:33.971Z,20.70
2018-04-28T19:48:37.816Z,20.60
2018-04-28T19:53:42.274Z,20.40
2018-04-28T19:58:47.850Z,20.30
2018-04-28T20:03:51.369Z,20.20
2018-04-28T20:08:55.661Z,20.00
2018-04-28T20:14:02.528Z,19.90
2018-04-28T20:19:06.815Z,19.80
2018-04-28T20:24:21.690Z,19.70
2018-04-28T20:29:27.167Z,19.60
2018-04-28T20:34:31.149Z,19.50
2018-04-28T20:39:36.513Z,19.40
2018-04-28T20:44:42.015Z,19.20
2018-04-28T20:49:45.481Z,19.20
2018-04-28T20:54:52.031Z,19.10
2018-04-28T20:59:56.531Z,19.00
2018-04-28T21:05:01.027Z,18.90
2018-04-28T21:10:04.769Z,18.80
2018-04-28T21:15:09.357Z,18.70
2018-04-28T21:20:13.338Z,18.60
2018-04-28T21:25:16.425Z,18.50
2018-04-28T21:30:19.871Z,18.50
2018-04-28T21:35:23.071Z,18.40
2018-04-28T21:40:26.174Z,18.30
2018-04-28T21:45:29.366Z,18.20
2018-04-28T21:55:39.848Z,18.00
2018-04-28T22:00:43.057Z,17.90
2018-04-28T22:05:50.290Z,17.80
2018-04-28T22:10:54.422Z,17.70
2018-04-28T22:15:58.431Z,17.70
2018-04-28T22:21:04.811Z,17.60
2018-04-28T22:26:09.179Z,17.50
2018-04-28T22:31:14.662Z,17.40
2018-04-28T22:36:18.932Z,17.30
2018-04-28T22:41:23.404Z,17.30
2018-04-28T22:46:29.077Z,17.10
2018-04-28T22:51:33.262Z,17.10
2018-04-28T22:56:36.939Z,17.00
2018-04-28T23:01:40.638Z,16.90
2018-04-28T23:11:53.591Z,16.80
2018-04-28T23:16:57.031Z,16.70
2018-04-28T23:22:01.138Z,16.60
2018-04-28T23:27:04.239Z,16.60
2018-04-28T23:32:07.298Z,16.50
2018-04-28T23:42:19.652Z,16.40
2018-04-28T23:47:24.509Z,16.30
2018-04-28T23:57:39.619Z,16.10
